KENW/ENW METAR and TAF weather

Enter ICAO airport designator
Station Type Date Time Source
KENW METAR 2020/07/15 05:53 UTC NOAA

KENW 150553Z AUTO 17010KT 10SM CLR 25/18 A3001 RMK AO2 LTG DSNT W-N SLP156 T02500178 10272 20244 402940167 50001


Station Type Date Time Source
KENW Decoded METAR 2020/07/15 05:53 UTC NOAA

KENOSHA REGIONAL AIRPORT, WI, United States (KENW) 42-36N 087-56W 219M
Jul 15, 2020 - 01:53 AM EDT / 2020.07.15 0553 UTC
Wind: from the S (170 degrees) at 12 MPH (10 KT):0
Visibility: 10 mile(s):0
Sky conditions: clear
Weather: Lightning observed
Temperature: 77.0 F (25.0 C)
Dew Point: 64.0 F (17.8 C)
Relative Humidity: 64%
Pressure (altimeter): 30.01 in. Hg (1016 hPa)
Pressure tendency: 0.00 inches (0.1 hPa) higher than three hours ago
ob: KENW 150553Z AUTO 17010KT 10SM CLR 25/18 A3001 RMK AO2 LTG DSNT W-N SLP156 T02500178 10272 20244 402940167 50001
cycle: 6

Station Type Date Time Source
KENW TAF 2020/07/15 06:48 UTC NOAA

TAF KENW 150545Z 1506/1606 16006KT P6SM -SHRA VCTS SCT040 BKN080CB
TEMPO 1507/1510 5SM -TSRA BR OVC040CB
FM151000 22005KT P6SM VCSH SCT030 BKN050
FM152000 04005KT P6SM -SHRA SCT030 BKN050
TEMPO 1520/1524 5SM TSRA BR OVC030CB
FM160400 04004KT P6SM SCT019 BKN040

Example: see airport list